sensor_id;sensor_type;location;lat;lon;timestamp;P1;durP1;ratioP1;P2;durP2;ratioP2
24401;SDS011;12539;48.808;11.292;2022-09-29T00:01:24;6.30;;;4.20;;
24401;SDS011;12539;48.808;11.292;2022-09-29T00:03:50;6.35;;;3.83;;
24401;SDS011;12539;48.808;11.292;2022-09-29T00:06:16;6.60;;;4.07;;
24401;SDS011;12539;48.808;11.292;2022-09-29T00:08:43;5.70;;;3.88;;
24401;SDS011;12539;48.808;11.292;2022-09-29T00:11:14;5.57;;;3.75;;
24401;SDS011;12539;48.808;11.292;2022-09-29T00:13:41;7.38;;;4.35;;
24401;SDS011;12539;48.808;11.292;2022-09-29T00:16:08;6.65;;;4.03;;
24401;SDS011;12539;48.808;11.292;2022-09-29T00:18:35;5.18;;;3.92;;
24401;SDS011;12539;48.808;11.292;2022-09-29T00:21:04;5.47;;;3.60;;
24401;SDS011;12539;48.808;11.292;2022-09-29T00:23:32;5.80;;;4.38;;
24401;SDS011;12539;48.808;11.292;2022-09-29T00:26:06;4.45;;;3.33;;
24401;SDS011;12539;48.808;11.292;2022-09-29T00:28:35;6.68;;;3.75;;
24401;SDS011;12539;48.808;11.292;2022-09-29T00:31:03;9.80;;;5.07;;
24401;SDS011;12539;48.808;11.292;2022-09-29T00:33:31;6.40;;;4.90;;
24401;SDS011;12539;48.808;11.292;2022-09-29T00:35:59;5.00;;;4.00;;
24401;SDS011;12539;48.808;11.292;2022-09-29T00:38:29;6.55;;;4.45;;
24401;SDS011;12539;48.808;11.292;2022-09-29T00:40:56;4.07;;;2.95;;
24401;SDS011;12539;48.808;11.292;2022-09-29T00:43:23;6.28;;;3.67;;
24401;SDS011;12539;48.808;11.292;2022-09-29T00:46:09;4.97;;;3.72;;
24401;SDS011;12539;48.808;11.292;2022-09-29T00:48:36;5.88;;;3.70;;
24401;SDS011;12539;48.808;11.292;2022-09-29T00:51:04;5.30;;;3.15;;
24401;SDS011;12539;48.808;11.292;2022-09-29T00:53:30;4.30;;;3.03;;
24401;SDS011;12539;48.808;11.292;2022-09-29T00:56:04;4.50;;;3.33;;
24401;SDS011;12539;48.808;11.292;2022-09-29T00:58:49;5.53;;;3.85;;
24401;SDS011;12539;48.808;11.292;2022-09-29T01:01:21;3.65;;;3.22;;
24401;SDS011;12539;48.808;11.292;2022-09-29T01:03:48;7.40;;;3.63;;
24401;SDS011;12539;48.808;11.292;2022-09-29T01:06:19;5.15;;;3.63;;
24401;SDS011;12539;48.808;11.292;2022-09-29T01:11:23;3.65;;;3.22;;
24401;SDS011;12539;48.808;11.292;2022-09-29T01:13:49;5.35;;;3.78;;
24401;SDS011;12539;48.808;11.292;2022-09-29T01:16:16;4.50;;;3.17;;
24401;SDS011;12539;48.808;11.292;2022-09-29T01:18:42;9.02;;;3.88;;
24401;SDS011;12539;48.808;11.292;2022-09-29T01:29:45;3.53;;;2.80;;
24401;SDS011;12539;48.808;11.292;2022-09-29T01:40:47;4.90;;;3.28;;
24401;SDS011;12539;48.808;11.292;2022-09-29T01:43:34;4.53;;;2.50;;
24401;SDS011;12539;48.808;11.292;2022-09-29T01:46:13;5.20;;;2.70;;
24401;SDS011;12539;48.808;11.292;2022-09-29T01:48:50;5.00;;;3.00;;
24401;SDS011;12539;48.808;11.292;2022-09-29T01:51:21;4.45;;;3.25;;
24401;SDS011;12539;48.808;11.292;2022-09-29T01:53:54;4.03;;;3.05;;
24401;SDS011;12539;48.808;11.292;2022-09-29T01:56:25;3.63;;;2.63;;
24401;SDS011;12539;48.808;11.292;2022-09-29T01:59:05;6.05;;;3.47;;
24401;SDS011;12539;48.808;11.292;2022-09-29T02:01:39;5.85;;;4.40;;
24401;SDS011;12539;48.808;11.292;2022-09-29T02:07:13;5.28;;;3.80;;
24401;SDS011;12539;48.808;11.292;2022-09-29T02:09:47;4.03;;;3.30;;
24401;SDS011;12539;48.808;11.292;2022-09-29T02:12:20;6.55;;;4.25;;
24401;SDS011;12539;48.808;11.292;2022-09-29T02:14:49;5.30;;;3.88;;
24401;SDS011;12539;48.808;11.292;2022-09-29T02:17:18;4.60;;;4.05;;
24401;SDS011;12539;48.808;11.292;2022-09-29T02:19:50;5.43;;;3.30;;
24401;SDS011;12539;48.808;11.292;2022-09-29T02:22:17;4.10;;;2.90;;
24401;SDS011;12539;48.808;11.292;2022-09-29T02:24:43;6.22;;;4.50;;
24401;SDS011;12539;48.808;11.292;2022-09-29T02:27:09;4.93;;;3.42;;
24401;SDS011;12539;48.808;11.292;2022-09-29T02:29:36;4.53;;;3.13;;
24401;SDS011;12539;48.808;11.292;2022-09-29T02:32:06;4.60;;;3.15;;
24401;SDS011;12539;48.808;11.292;2022-09-29T02:34:34;4.88;;;3.55;;
24401;SDS011;12539;48.808;11.292;2022-09-29T02:51:27;5.35;;;4.03;;
24401;SDS011;12539;48.808;11.292;2022-09-29T02:54:08;5.30;;;3.95;;
24401;SDS011;12539;48.808;11.292;2022-09-29T02:59:23;5.28;;;3.45;;
24401;SDS011;12539;48.808;11.292;2022-09-29T03:01:55;4.75;;;3.25;;
24401;SDS011;12539;48.808;11.292;2022-09-29T03:04:22;4.10;;;3.65;;
24401;SDS011;12539;48.808;11.292;2022-09-29T03:06:49;4.60;;;3.47;;
24401;SDS011;12539;48.808;11.292;2022-09-29T03:09:15;7.13;;;3.97;;
24401;SDS011;12539;48.808;11.292;2022-09-29T03:11:41;5.90;;;3.58;;
24401;SDS011;12539;48.808;11.292;2022-09-29T03:14:08;4.93;;;4.43;;
24401;SDS011;12539;48.808;11.292;2022-09-29T03:16:35;4.35;;;3.53;;
24401;SDS011;12539;48.808;11.292;2022-09-29T03:19:01;4.50;;;3.95;;
24401;SDS011;12539;48.808;11.292;2022-09-29T03:21:29;4.82;;;4.32;;
24401;SDS011;12539;48.808;11.292;2022-09-29T03:23:55;4.43;;;4.03;;
24401;SDS011;12539;48.808;11.292;2022-09-29T03:26:21;4.95;;;3.83;;
24401;SDS011;12539;48.808;11.292;2022-09-29T03:28:48;4.43;;;3.60;;
24401;SDS011;12539;48.808;11.292;2022-09-29T03:31:14;3.25;;;2.80;;
24401;SDS011;12539;48.808;11.292;2022-09-29T03:33:40;6.10;;;4.22;;
24401;SDS011;12539;48.808;11.292;2022-09-29T03:36:06;3.95;;;3.30;;
24401;SDS011;12539;48.808;11.292;2022-09-29T03:38:33;4.25;;;3.85;;
24401;SDS011;12539;48.808;11.292;2022-09-29T03:40:59;5.53;;;4.28;;
24401;SDS011;12539;48.808;11.292;2022-09-29T03:43:25;5.53;;;4.40;;
24401;SDS011;12539;48.808;11.292;2022-09-29T03:45:52;6.72;;;4.75;;
24401;SDS011;12539;48.808;11.292;2022-09-29T03:48:19;5.65;;;4.50;;
24401;SDS011;12539;48.808;11.292;2022-09-29T03:50:46;6.55;;;4.93;;
24401;SDS011;12539;48.808;11.292;2022-09-29T03:53:13;6.55;;;4.82;;
24401;SDS011;12539;48.808;11.292;2022-09-29T03:55:39;7.75;;;5.57;;
24401;SDS011;12539;48.808;11.292;2022-09-29T03:58:05;4.60;;;3.92;;
24401;SDS011;12539;48.808;11.292;2022-09-29T04:00:31;4.75;;;4.22;;
24401;SDS011;12539;48.808;11.292;2022-09-29T04:02:57;5.60;;;4.43;;
24401;SDS011;12539;48.808;11.292;2022-09-29T04:05:23;5.97;;;4.57;;
24401;SDS011;12539;48.808;11.292;2022-09-29T04:07:49;5.47;;;4.50;;
24401;SDS011;12539;48.808;11.292;2022-09-29T04:10:15;5.35;;;4.68;;
24401;SDS011;12539;48.808;11.292;2022-09-29T04:12:40;6.05;;;5.28;;
24401;SDS011;12539;48.808;11.292;2022-09-29T04:15:06;6.35;;;4.72;;
24401;SDS011;12539;48.808;11.292;2022-09-29T04:17:32;11.27;;;6.15;;
24401;SDS011;12539;48.808;11.292;2022-09-29T04:19:58;7.95;;;4.63;;
24401;SDS011;12539;48.808;11.292;2022-09-29T04:22:24;6.85;;;5.43;;
24401;SDS011;12539;48.808;11.292;2022-09-29T04:24:49;8.75;;;4.65;;
24401;SDS011;12539;48.808;11.292;2022-09-29T04:27:16;10.65;;;6.05;;
24401;SDS011;12539;48.808;11.292;2022-09-29T04:29:42;73.40;;;22.23;;
24401;SDS011;12539;48.808;11.292;2022-09-29T04:32:08;29.70;;;10.88;;
24401;SDS011;12539;48.808;11.292;2022-09-29T04:34:34;25.98;;;11.38;;
24401;SDS011;12539;48.808;11.292;2022-09-29T04:37:00;21.35;;;10.32;;
24401;SDS011;12539;48.808;11.292;2022-09-29T04:39:26;23.67;;;11.15;;
24401;SDS011;12539;48.808;11.292;2022-09-29T04:41:52;25.55;;;10.43;;
24401;SDS011;12539;48.808;11.292;2022-09-29T04:44:18;50.30;;;15.13;;
24401;SDS011;12539;48.808;11.292;2022-09-29T04:46:48;102.45;;;21.55;;
24401;SDS011;12539;48.808;11.292;2022-09-29T04:49:14;97.03;;;22.27;;
24401;SDS011;12539;48.808;11.292;2022-09-29T04:51:40;79.90;;;16.40;;
24401;SDS011;12539;48.808;11.292;2022-09-29T04:54:05;103.40;;;17.27;;
24401;SDS011;12539;48.808;11.292;2022-09-29T04:56:31;70.07;;;16.67;;
24401;SDS011;12539;48.808;11.292;2022-09-29T04:58:57;63.80;;;17.73;;
24401;SDS011;12539;48.808;11.292;2022-09-29T05:01:23;85.30;;;20.52;;
24401;SDS011;12539;48.808;11.292;2022-09-29T05:03:49;62.15;;;15.52;;
24401;SDS011;12539;48.808;11.292;2022-09-29T05:06:15;86.60;;;15.05;;
24401;SDS011;12539;48.808;11.292;2022-09-29T05:08:41;57.35;;;15.60;;
24401;SDS011;12539;48.808;11.292;2022-09-29T05:11:08;98.22;;;16.52;;
24401;SDS011;12539;48.808;11.292;2022-09-29T05:13:34;71.40;;;16.05;;
24401;SDS011;12539;48.808;11.292;2022-09-29T05:16:01;69.80;;;14.00;;
24401;SDS011;12539;48.808;11.292;2022-09-29T05:18:27;103.10;;;17.38;;
24401;SDS011;12539;48.808;11.292;2022-09-29T05:20:54;51.53;;;14.20;;
24401;SDS011;12539;48.808;11.292;2022-09-29T05:23:20;26.05;;;10.13;;
24401;SDS011;12539;48.808;11.292;2022-09-29T05:25:46;91.70;;;16.65;;
24401;SDS011;12539;48.808;11.292;2022-09-29T05:28:12;47.38;;;12.50;;
24401;SDS011;12539;48.808;11.292;2022-09-29T05:30:39;68.75;;;17.60;;
24401;SDS011;12539;48.808;11.292;2022-09-29T05:33:06;65.20;;;14.13;;
24401;SDS011;12539;48.808;11.292;2022-09-29T05:35:34;43.38;;;8.50;;
24401;SDS011;12539;48.808;11.292;2022-09-29T05:37:59;29.60;;;9.32;;
24401;SDS011;12539;48.808;11.292;2022-09-29T05:40:25;27.80;;;8.73;;
24401;SDS011;12539;48.808;11.292;2022-09-29T05:42:51;91.13;;;14.00;;
24401;SDS011;12539;48.808;11.292;2022-09-29T05:45:17;191.32;;;23.77;;
24401;SDS011;12539;48.808;11.292;2022-09-29T05:47:43;138.80;;;16.42;;
24401;SDS011;12539;48.808;11.292;2022-09-29T05:50:12;109.22;;;17.33;;
24401;SDS011;12539;48.808;11.292;2022-09-29T05:52:38;62.33;;;12.10;;
24401;SDS011;12539;48.808;11.292;2022-09-29T05:55:04;34.83;;;8.95;;
24401;SDS011;12539;48.808;11.292;2022-09-29T05:57:34;33.30;;;9.07;;
24401;SDS011;12539;48.808;11.292;2022-09-29T06:00:00;69.45;;;13.32;;
24401;SDS011;12539;48.808;11.292;2022-09-29T06:02:26;106.32;;;16.60;;
24401;SDS011;12539;48.808;11.292;2022-09-29T06:04:51;47.55;;;11.57;;
24401;SDS011;12539;48.808;11.292;2022-09-29T06:07:17;68.32;;;13.45;;
24401;SDS011;12539;48.808;11.292;2022-09-29T06:09:43;79.70;;;15.13;;
24401;SDS011;12539;48.808;11.292;2022-09-29T06:12:09;38.13;;;11.18;;
24401;SDS011;12539;48.808;11.292;2022-09-29T06:14:35;59.15;;;14.50;;
24401;SDS011;12539;48.808;11.292;2022-09-29T06:17:01;44.40;;;12.00;;
24401;SDS011;12539;48.808;11.292;2022-09-29T06:19:26;49.35;;;12.13;;
24401;SDS011;12539;48.808;11.292;2022-09-29T06:21:52;53.42;;;12.98;;
24401;SDS011;12539;48.808;11.292;2022-09-29T06:24:18;31.90;;;9.93;;
24401;SDS011;12539;48.808;11.292;2022-09-29T06:26:43;27.95;;;8.18;;
24401;SDS011;12539;48.808;11.292;2022-09-29T06:29:09;20.10;;;8.65;;
24401;SDS011;12539;48.808;11.292;2022-09-29T06:31:35;21.63;;;9.73;;
24401;SDS011;12539;48.808;11.292;2022-09-29T06:34:02;22.27;;;10.23;;
24401;SDS011;12539;48.808;11.292;2022-09-29T06:36:35;12.25;;;6.85;;
24401;SDS011;12539;48.808;11.292;2022-09-29T06:39:22;44.75;;;11.35;;
24401;SDS011;12539;48.808;11.292;2022-09-29T06:41:48;42.78;;;11.00;;
24401;SDS011;12539;48.808;11.292;2022-09-29T06:44:19;28.67;;;12.25;;
24401;SDS011;12539;48.808;11.292;2022-09-29T06:46:46;26.83;;;10.40;;
24401;SDS011;12539;48.808;11.292;2022-09-29T06:49:12;49.83;;;14.30;;
24401;SDS011;12539;48.808;11.292;2022-09-29T06:51:39;34.10;;;13.90;;
24401;SDS011;12539;48.808;11.292;2022-09-29T06:54:06;22.25;;;11.10;;
24401;SDS011;12539;48.808;11.292;2022-09-29T06:56:32;26.08;;;14.00;;
24401;SDS011;12539;48.808;11.292;2022-09-29T06:58:58;25.75;;;13.13;;
24401;SDS011;12539;48.808;11.292;2022-09-29T07:01:23;20.60;;;12.30;;
24401;SDS011;12539;48.808;11.292;2022-09-29T07:03:50;21.27;;;11.07;;
24401;SDS011;12539;48.808;11.292;2022-09-29T07:06:16;22.98;;;12.65;;
24401;SDS011;12539;48.808;11.292;2022-09-29T07:08:41;27.63;;;13.75;;
24401;SDS011;12539;48.808;11.292;2022-09-29T07:11:08;18.42;;;11.73;;
24401;SDS011;12539;48.808;11.292;2022-09-29T07:13:34;19.95;;;12.95;;
24401;SDS011;12539;48.808;11.292;2022-09-29T07:16:07;12.65;;;8.77;;
24401;SDS011;12539;48.808;11.292;2022-09-29T07:18:35;17.77;;;10.07;;
24401;SDS011;12539;48.808;11.292;2022-09-29T07:21:02;12.50;;;6.90;;
24401;SDS011;12539;48.808;11.292;2022-09-29T07:23:29;15.10;;;10.50;;
24401;SDS011;12539;48.808;11.292;2022-09-29T07:25:55;12.80;;;7.70;;
24401;SDS011;12539;48.808;11.292;2022-09-29T07:28:21;15.90;;;10.18;;
24401;SDS011;12539;48.808;11.292;2022-09-29T07:30:56;19.50;;;11.48;;
24401;SDS011;12539;48.808;11.292;2022-09-29T07:33:23;18.83;;;11.88;;
24401;SDS011;12539;48.808;11.292;2022-09-29T07:35:50;15.30;;;10.88;;
24401;SDS011;12539;48.808;11.292;2022-09-29T07:38:17;11.93;;;8.05;;
24401;SDS011;12539;48.808;11.292;2022-09-29T07:40:43;19.05;;;13.75;;
24401;SDS011;12539;48.808;11.292;2022-09-29T07:43:09;18.33;;;11.60;;
24401;SDS011;12539;48.808;11.292;2022-09-29T07:45:34;11.70;;;7.07;;
24401;SDS011;12539;48.808;11.292;2022-09-29T07:48:00;16.65;;;11.63;;
24401;SDS011;12539;48.808;11.292;2022-09-29T07:50:26;13.20;;;9.45;;
24401;SDS011;12539;48.808;11.292;2022-09-29T07:52:51;12.77;;;9.23;;
24401;SDS011;12539;48.808;11.292;2022-09-29T07:55:17;14.90;;;11.65;;
24401;SDS011;12539;48.808;11.292;2022-09-29T07:57:45;16.67;;;11.73;;
24401;SDS011;12539;48.808;11.292;2022-09-29T08:00:12;19.48;;;14.77;;
24401;SDS011;12539;48.808;11.292;2022-09-29T08:02:38;16.10;;;12.60;;
24401;SDS011;12539;48.808;11.292;2022-09-29T08:05:04;12.65;;;9.23;;
24401;SDS011;12539;48.808;11.292;2022-09-29T08:07:30;11.27;;;7.70;;
24401;SDS011;12539;48.808;11.292;2022-09-29T08:09:55;8.98;;;7.53;;
24401;SDS011;12539;48.808;11.292;2022-09-29T08:12:21;18.15;;;10.90;;
24401;SDS011;12539;48.808;11.292;2022-09-29T08:14:46;14.85;;;11.43;;
24401;SDS011;12539;48.808;11.292;2022-09-29T08:17:13;15.95;;;12.98;;
24401;SDS011;12539;48.808;11.292;2022-09-29T08:19:39;11.77;;;8.38;;
24401;SDS011;12539;48.808;11.292;2022-09-29T08:22:04;12.65;;;10.93;;
24401;SDS011;12539;48.808;11.292;2022-09-29T08:24:30;18.40;;;12.85;;
24401;SDS011;12539;48.808;11.292;2022-09-29T08:26:56;15.32;;;11.90;;
24401;SDS011;12539;48.808;11.292;2022-09-29T08:29:21;13.18;;;10.13;;
24401;SDS011;12539;48.808;11.292;2022-09-29T08:31:47;12.73;;;10.30;;
24401;SDS011;12539;48.808;11.292;2022-09-29T08:34:13;16.65;;;11.93;;
24401;SDS011;12539;48.808;11.292;2022-09-29T08:36:39;15.20;;;12.15;;
24401;SDS011;12539;48.808;11.292;2022-09-29T08:39:05;19.70;;;16.25;;
24401;SDS011;12539;48.808;11.292;2022-09-29T08:44:04;13.15;;;10.55;;
24401;SDS011;12539;48.808;11.292;2022-09-29T08:46:41;13.70;;;11.75;;
24401;SDS011;12539;48.808;11.292;2022-09-29T08:49:13;18.52;;;14.15;;
24401;SDS011;12539;48.808;11.292;2022-09-29T08:51:45;15.10;;;13.10;;
24401;SDS011;12539;48.808;11.292;2022-09-29T08:56:57;12.73;;;10.00;;
24401;SDS011;12539;48.808;11.292;2022-09-29T08:59:24;12.80;;;11.32;;
24401;SDS011;12539;48.808;11.292;2022-09-29T09:01:59;12.50;;;11.15;;
24401;SDS011;12539;48.808;11.292;2022-09-29T09:10:38;16.90;;;13.40;;
24401;SDS011;12539;48.808;11.292;2022-09-29T09:16:12;13.07;;;10.98;;
24401;SDS011;12539;48.808;11.292;2022-09-29T09:21:39;12.10;;;8.85;;
24401;SDS011;12539;48.808;11.292;2022-09-29T09:24:14;13.98;;;11.60;;
24401;SDS011;12539;48.808;11.292;2022-09-29T09:26:45;12.50;;;9.88;;
24401;SDS011;12539;48.808;11.292;2022-09-29T09:31:50;12.60;;;10.30;;
24401;SDS011;12539;48.808;11.292;2022-09-29T09:34:28;13.80;;;11.18;;
24401;SDS011;12539;48.808;11.292;2022-09-29T09:37:06;10.75;;;9.65;;
24401;SDS011;12539;48.808;11.292;2022-09-29T09:39:43;9.13;;;8.23;;
24401;SDS011;12539;48.808;11.292;2022-09-29T09:42:30;13.60;;;12.02;;
24401;SDS011;12539;48.808;11.292;2022-09-29T09:47:33;12.20;;;10.63;;
24401;SDS011;12539;48.808;11.292;2022-09-29T09:50:14;25.17;;;19.73;;
24401;SDS011;12539;48.808;11.292;2022-09-29T10:00:52;17.63;;;15.82;;
24401;SDS011;12539;48.808;11.292;2022-09-29T10:03:26;13.15;;;11.05;;
24401;SDS011;12539;48.808;11.292;2022-09-29T10:05:52;15.73;;;14.10;;
24401;SDS011;12539;48.808;11.292;2022-09-29T10:10:55;10.55;;;9.35;;
24401;SDS011;12539;48.808;11.292;2022-09-29T10:13:26;12.93;;;11.60;;
24401;SDS011;12539;48.808;11.292;2022-09-29T10:16:29;12.95;;;11.30;;
24401;SDS011;12539;48.808;11.292;2022-09-29T10:18:53;12.02;;;10.82;;
24401;SDS011;12539;48.808;11.292;2022-09-29T10:21:19;10.80;;;8.65;;
24401;SDS011;12539;48.808;11.292;2022-09-29T10:23:53;11.48;;;10.27;;
24401;SDS011;12539;48.808;11.292;2022-09-29T10:26:21;9.10;;;8.20;;
24401;SDS011;12539;48.808;11.292;2022-09-29T10:28:51;10.52;;;9.48;;
24401;SDS011;12539;48.808;11.292;2022-09-29T10:31:22;10.20;;;9.20;;
24401;SDS011;12539;48.808;11.292;2022-09-29T10:34:36;10.52;;;9.35;;
24401;SDS011;12539;48.808;11.292;2022-09-29T10:36:49;10.50;;;8.90;;
24401;SDS011;12539;48.808;11.292;2022-09-29T10:42:18;8.65;;;7.75;;
24401;SDS011;12539;48.808;11.292;2022-09-29T10:44:53;8.00;;;7.20;;
24401;SDS011;12539;48.808;11.292;2022-09-29T10:47:25;11.80;;;10.70;;
24401;SDS011;12539;48.808;11.292;2022-09-29T10:52:36;12.55;;;10.10;;
24401;SDS011;12539;48.808;11.292;2022-09-29T10:55:13;24.98;;;18.65;;
24401;SDS011;12539;48.808;11.292;2022-09-29T10:57:45;22.42;;;16.58;;
24401;SDS011;12539;48.808;11.292;2022-09-29T11:05:23;10.68;;;9.57;;
24401;SDS011;12539;48.808;11.292;2022-09-29T11:07:50;8.98;;;8.02;;
24401;SDS011;12539;48.808;11.292;2022-09-29T11:10:36;12.52;;;9.85;;
24401;SDS011;12539;48.808;11.292;2022-09-29T11:15:43;7.18;;;6.47;;
24401;SDS011;12539;48.808;11.292;2022-09-29T11:18:19;9.25;;;8.05;;
24401;SDS011;12539;48.808;11.292;2022-09-29T11:20:51;10.23;;;8.27;;
24401;SDS011;12539;48.808;11.292;2022-09-29T11:23:35;7.70;;;6.45;;
24401;SDS011;12539;48.808;11.292;2022-09-29T11:36:53;7.32;;;6.57;;
24401;SDS011;12539;48.808;11.292;2022-09-29T11:45:15;9.40;;;8.40;;
24401;SDS011;12539;48.808;11.292;2022-09-29T11:56:05;9.10;;;7.13;;
24401;SDS011;12539;48.808;11.292;2022-09-29T12:18:15;6.30;;;5.70;;
24401;SDS011;12539;48.808;11.292;2022-09-29T12:20:46;6.55;;;5.95;;
24401;SDS011;12539;48.808;11.292;2022-09-29T12:23:16;6.40;;;5.47;;
24401;SDS011;12539;48.808;11.292;2022-09-29T12:25:52;5.95;;;5.35;;
24401;SDS011;12539;48.808;11.292;2022-09-29T12:31:32;6.72;;;6.13;;
24401;SDS011;12539;48.808;11.292;2022-09-29T12:34:04;6.72;;;6.13;;
24401;SDS011;12539;48.808;11.292;2022-09-29T12:36:39;7.57;;;6.80;;
24401;SDS011;12539;48.808;11.292;2022-09-29T12:51:01;5.60;;;5.10;;
24401;SDS011;12539;48.808;11.292;2022-09-29T12:56:41;6.03;;;5.53;;
24401;SDS011;12539;48.808;11.292;2022-09-29T12:59:34;6.38;;;5.78;;
24401;SDS011;12539;48.808;11.292;2022-09-29T13:12:55;8.95;;;5.13;;
24401;SDS011;12539;48.808;11.292;2022-09-29T13:27:08;5.60;;;4.97;;
24401;SDS011;12539;48.808;11.292;2022-09-29T13:29:52;5.85;;;5.25;;
24401;SDS011;12539;48.808;11.292;2022-09-29T13:35:56;6.03;;;5.47;;
24401;SDS011;12539;48.808;11.292;2022-09-29T13:38:26;6.40;;;5.80;;
24401;SDS011;12539;48.808;11.292;2022-09-29T13:41:08;6.70;;;6.00;;
24401;SDS011;12539;48.808;11.292;2022-09-29T13:48:51;6.60;;;6.00;;
24401;SDS011;12539;48.808;11.292;2022-09-29T13:51:25;5.97;;;5.47;;
24401;SDS011;12539;48.808;11.292;2022-09-29T13:56:48;5.60;;;5.10;;
24401;SDS011;12539;48.808;11.292;2022-09-29T13:59:21;7.72;;;6.93;;
24401;SDS011;12539;48.808;11.292;2022-09-29T14:01:49;6.53;;;5.93;;
24401;SDS011;12539;48.808;11.292;2022-09-29T14:04:32;5.93;;;5.38;;
24401;SDS011;12539;48.808;11.292;2022-09-29T14:07:00;7.05;;;6.30;;
24401;SDS011;12539;48.808;11.292;2022-09-29T14:09:29;8.73;;;7.40;;
24401;SDS011;12539;48.808;11.292;2022-09-29T14:11:59;9.80;;;7.88;;
24401;SDS011;12539;48.808;11.292;2022-09-29T14:14:32;6.55;;;5.95;;
24401;SDS011;12539;48.808;11.292;2022-09-29T14:25:20;6.82;;;5.97;;
24401;SDS011;12539;48.808;11.292;2022-09-29T14:27:57;7.20;;;6.43;;
24401;SDS011;12539;48.808;11.292;2022-09-29T14:30:47;14.32;;;11.57;;
24401;SDS011;12539;48.808;11.292;2022-09-29T14:33:21;9.93;;;8.07;;
24401;SDS011;12539;48.808;11.292;2022-09-29T14:38:46;10.80;;;9.15;;
24401;SDS011;12539;48.808;11.292;2022-09-29T14:41:24;12.75;;;8.52;;
24401;SDS011;12539;48.808;11.292;2022-09-29T14:44:04;13.80;;;10.77;;
24401;SDS011;12539;48.808;11.292;2022-09-29T15:02:48;7.60;;;6.82;;
24401;SDS011;12539;48.808;11.292;2022-09-29T15:07:55;9.88;;;7.78;;
24401;SDS011;12539;48.808;11.292;2022-09-29T15:10:29;8.75;;;6.82;;
24401;SDS011;12539;48.808;11.292;2022-09-29T15:13:15;7.88;;;6.72;;
24401;SDS011;12539;48.808;11.292;2022-09-29T15:15:46;9.05;;;6.47;;
24401;SDS011;12539;48.808;11.292;2022-09-29T15:26:29;9.43;;;7.53;;
24401;SDS011;12539;48.808;11.292;2022-09-29T15:28:57;8.68;;;6.30;;
24401;SDS011;12539;48.808;11.292;2022-09-29T15:31:28;9.48;;;8.13;;
24401;SDS011;12539;48.808;11.292;2022-09-29T15:33:58;7.97;;;6.45;;
24401;SDS011;12539;48.808;11.292;2022-09-29T15:36:26;11.95;;;7.40;;
24401;SDS011;12539;48.808;11.292;2022-09-29T15:39:01;9.98;;;7.30;;
24401;SDS011;12539;48.808;11.292;2022-09-29T15:41:30;8.05;;;6.65;;
24401;SDS011;12539;48.808;11.292;2022-09-29T15:43:58;8.07;;;6.25;;
24401;SDS011;12539;48.808;11.292;2022-09-29T15:46:45;8.93;;;6.50;;
24401;SDS011;12539;48.808;11.292;2022-09-29T15:49:14;8.57;;;7.63;;
24401;SDS011;12539;48.808;11.292;2022-09-29T15:51:43;8.70;;;7.07;;
24401;SDS011;12539;48.808;11.292;2022-09-29T15:54:18;7.63;;;6.78;;
24401;SDS011;12539;48.808;11.292;2022-09-29T15:56:44;7.57;;;6.78;;
24401;SDS011;12539;48.808;11.292;2022-09-29T16:02:35;7.57;;;6.65;;
24401;SDS011;12539;48.808;11.292;2022-09-29T16:05:05;15.93;;;10.75;;
24401;SDS011;12539;48.808;11.292;2022-09-29T16:07:38;8.85;;;6.47;;
24401;SDS011;12539;48.808;11.292;2022-09-29T16:10:21;16.20;;;11.20;;
24401;SDS011;12539;48.808;11.292;2022-09-29T16:12:58;10.80;;;7.90;;
24401;SDS011;12539;48.808;11.292;2022-09-29T16:17:58;7.65;;;6.57;;
24401;SDS011;12539;48.808;11.292;2022-09-29T16:20:28;7.05;;;6.15;;
24401;SDS011;12539;48.808;11.292;2022-09-29T16:22:56;7.30;;;6.30;;
24401;SDS011;12539;48.808;11.292;2022-09-29T16:25:32;8.15;;;6.25;;
24401;SDS011;12539;48.808;11.292;2022-09-29T16:27:59;6.55;;;5.90;;
24401;SDS011;12539;48.808;11.292;2022-09-29T16:30:30;8.38;;;7.00;;
24401;SDS011;12539;48.808;11.292;2022-09-29T16:40:51;13.20;;;10.30;;
24401;SDS011;12539;48.808;11.292;2022-09-29T16:45:58;14.13;;;10.45;;
24401;SDS011;12539;48.808;11.292;2022-09-29T16:48:27;10.55;;;8.70;;
24401;SDS011;12539;48.808;11.292;2022-09-29T16:50:55;11.50;;;8.50;;
24401;SDS011;12539;48.808;11.292;2022-09-29T16:53:28;10.05;;;7.18;;
24401;SDS011;12539;48.808;11.292;2022-09-29T16:56:02;7.93;;;6.82;;
24401;SDS011;12539;48.808;11.292;2022-09-29T16:58:34;11.75;;;8.32;;
24401;SDS011;12539;48.808;11.292;2022-09-29T17:01:01;16.80;;;11.45;;
24401;SDS011;12539;48.808;11.292;2022-09-29T17:03:27;16.15;;;13.07;;
24401;SDS011;12539;48.808;11.292;2022-09-29T17:05:54;10.85;;;9.43;;
24401;SDS011;12539;48.808;11.292;2022-09-29T17:08:25;13.27;;;10.23;;
24401;SDS011;12539;48.808;11.292;2022-09-29T17:10:53;130.32;;;37.05;;
24401;SDS011;12539;48.808;11.292;2022-09-29T17:13:20;27.08;;;13.57;;
24401;SDS011;12539;48.808;11.292;2022-09-29T17:15:48;19.75;;;12.15;;
24401;SDS011;12539;48.808;11.292;2022-09-29T17:18:16;19.42;;;11.52;;
24401;SDS011;12539;48.808;11.292;2022-09-29T17:20:43;15.30;;;9.38;;
24401;SDS011;12539;48.808;11.292;2022-09-29T17:23:09;10.55;;;9.45;;
24401;SDS011;12539;48.808;11.292;2022-09-29T17:25:37;16.88;;;9.55;;
24401;SDS011;12539;48.808;11.292;2022-09-29T17:28:09;15.90;;;9.88;;
24401;SDS011;12539;48.808;11.292;2022-09-29T17:30:46;14.35;;;8.38;;
24401;SDS011;12539;48.808;11.292;2022-09-29T17:33:16;13.68;;;8.25;;
24401;SDS011;12539;48.808;11.292;2022-09-29T17:43:26;12.75;;;8.15;;
24401;SDS011;12539;48.808;11.292;2022-09-29T17:45:56;12.23;;;8.40;;
24401;SDS011;12539;48.808;11.292;2022-09-29T17:48:23;11.80;;;7.85;;
24401;SDS011;12539;48.808;11.292;2022-09-29T17:50:50;11.43;;;7.65;;
24401;SDS011;12539;48.808;11.292;2022-09-29T17:53:20;12.60;;;7.63;;
24401;SDS011;12539;48.808;11.292;2022-09-29T17:55:47;11.82;;;6.53;;
24401;SDS011;12539;48.808;11.292;2022-09-29T17:58:15;13.43;;;8.80;;
24401;SDS011;12539;48.808;11.292;2022-09-29T18:00:43;9.30;;;6.60;;
24401;SDS011;12539;48.808;11.292;2022-09-29T18:03:11;10.43;;;7.68;;
24401;SDS011;12539;48.808;11.292;2022-09-29T18:05:38;7.03;;;5.85;;
24401;SDS011;12539;48.808;11.292;2022-09-29T18:08:06;14.43;;;12.45;;
24401;SDS011;12539;48.808;11.292;2022-09-29T18:10:37;14.18;;;9.93;;
24401;SDS011;12539;48.808;11.292;2022-09-29T18:13:25;14.50;;;7.57;;
24401;SDS011;12539;48.808;11.292;2022-09-29T18:15:53;8.52;;;4.90;;
24401;SDS011;12539;48.808;11.292;2022-09-29T18:18:20;8.85;;;5.75;;
24401;SDS011;12539;48.808;11.292;2022-09-29T18:20:47;7.47;;;5.50;;
24401;SDS011;12539;48.808;11.292;2022-09-29T18:23:14;11.98;;;7.35;;
24401;SDS011;12539;48.808;11.292;2022-09-29T18:25:41;10.82;;;6.88;;
24401;SDS011;12539;48.808;11.292;2022-09-29T18:28:09;8.32;;;5.28;;
24401;SDS011;12539;48.808;11.292;2022-09-29T18:30:36;6.93;;;6.15;;
24401;SDS011;12539;48.808;11.292;2022-09-29T18:33:08;7.88;;;5.72;;
24401;SDS011;12539;48.808;11.292;2022-09-29T18:35:36;8.55;;;5.85;;
24401;SDS011;12539;48.808;11.292;2022-09-29T18:38:05;6.97;;;5.68;;
24401;SDS011;12539;48.808;11.292;2022-09-29T18:40:32;7.78;;;6.30;;
24401;SDS011;12539;48.808;11.292;2022-09-29T18:42:58;6.78;;;6.00;;